createdAt,value
2023-02-14T00:02:07.295Z,18.80
2023-02-14T00:05:15.245Z,17.70
2023-02-14T00:08:23.263Z,18.90
2023-02-14T00:11:32.234Z,18.80
2023-02-14T00:15:09.589Z,19.90
2023-02-14T00:18:19.691Z,18.30
2023-02-14T00:21:27.926Z,20.00
2023-02-14T00:24:36.493Z,16.50
2023-02-14T00:27:44.460Z,20.80
2023-02-14T00:30:52.694Z,17.40
2023-02-14T00:34:00.764Z,19.50
2023-02-14T00:37:10.508Z,17.40
2023-02-14T00:40:18.993Z,19.80
2023-02-14T00:43:26.978Z,18.40
2023-02-14T00:46:35.450Z,15.30
2023-02-14T00:49:43.600Z,18.30
2023-02-14T00:52:51.618Z,18.20
2023-02-14T00:56:00.872Z,17.70
2023-02-14T00:59:09.349Z,16.90
2023-02-14T01:02:19.528Z,18.40
2023-02-14T01:08:33.997Z,15.80
2023-02-14T01:11:43.773Z,18.40
2023-02-14T01:17:59.771Z,18.50
2023-02-14T01:21:22.328Z,18.60
2023-02-14T01:24:30.422Z,17.20
2023-02-14T01:27:38.538Z,18.00
2023-02-14T01:30:47.460Z,17.40
2023-02-14T01:33:56.782Z,18.20
2023-02-14T01:37:05.255Z,20.50
2023-02-14T01:40:17.553Z,18.60
2023-02-14T01:43:27.282Z,18.60
2023-02-14T01:46:38.044Z,21.50
2023-02-14T01:49:53.539Z,19.50
2023-02-14T01:53:08.715Z,17.10
2023-02-14T01:56:25.432Z,17.90
2023-02-14T01:59:42.239Z,16.50
2023-02-14T02:02:50.967Z,17.60
2023-02-14T02:06:08.226Z,17.80
2023-02-14T02:09:24.017Z,18.40
2023-02-14T02:12:35.674Z,17.90
2023-02-14T02:15:56.589Z,19.00
2023-02-14T02:19:43.617Z,19.10
2023-02-14T02:23:35.585Z,18.60
2023-02-14T02:27:21.968Z,17.80
2023-02-14T02:31:10.727Z,15.50
2023-02-14T02:34:58.805Z,19.50
2023-02-14T02:38:26.633Z,19.40
2023-02-14T02:41:49.419Z,17.60
2023-02-14T02:45:15.005Z,18.70
2023-02-14T02:48:33.596Z,18.60
2023-02-14T02:52:11.286Z,20.20
2023-02-14T02:55:29.119Z,19.70
2023-02-14T02:58:44.072Z,20.60
2023-02-14T03:01:59.031Z,21.10
2023-02-14T03:05:11.041Z,19.40
2023-02-14T03:08:18.894Z,19.70
2023-02-14T03:11:28.704Z,22.80
2023-02-14T03:18:00.210Z,16.10
2023-02-14T03:21:23.334Z,20.10
2023-02-14T03:24:46.316Z,21.40
2023-02-14T03:28:05.180Z,23.50
2023-02-14T03:31:29.579Z,22.00
2023-02-14T03:34:46.973Z,22.80
2023-02-14T03:38:04.146Z,20.80
2023-02-14T03:41:19.930Z,21.40
2023-02-14T03:44:32.709Z,21.90
2023-02-14T03:47:44.761Z,22.30
2023-02-14T03:50:57.484Z,21.90
2023-02-14T03:54:13.345Z,23.70
2023-02-14T03:57:28.894Z,21.80
2023-02-14T04:00:43.873Z,24.50
2023-02-14T04:03:55.255Z,25.10
2023-02-14T04:07:12.424Z,23.30
2023-02-14T04:10:22.385Z,25.80
2023-02-14T04:13:31.173Z,23.10
2023-02-14T04:16:53.204Z,25.00
2023-02-14T04:20:01.454Z,25.10
2023-02-14T04:23:09.968Z,26.20
2023-02-14T04:26:18.006Z,25.30
2023-02-14T04:29:26.584Z,23.50
2023-02-14T04:32:34.566Z,25.70
2023-02-14T04:35:43.019Z,25.30
2023-02-14T04:38:51.196Z,27.70
2023-02-14T04:41:59.571Z,26.00
2023-02-14T04:45:09.054Z,29.00
2023-02-14T04:48:17.492Z,26.00
2023-02-14T04:51:27.711Z,27.60
2023-02-14T04:54:36.296Z,29.20
2023-02-14T04:57:44.328Z,26.90
2023-02-14T05:00:53.029Z,26.70
2023-02-14T05:04:01.142Z,26.40
2023-02-14T05:07:10.228Z,30.10
2023-02-14T05:10:19.303Z,25.90
2023-02-14T05:13:29.325Z,27.80
2023-02-14T05:16:38.568Z,26.60
2023-02-14T05:19:46.490Z,28.00
2023-02-14T05:22:54.410Z,26.80
2023-02-14T05:26:02.572Z,25.20
2023-02-14T05:29:12.668Z,25.90
2023-02-14T05:32:22.416Z,26.80
2023-02-14T05:35:30.278Z,26.30
2023-02-14T05:38:38.794Z,25.90
2023-02-14T05:41:46.661Z,23.40
2023-02-14T05:44:54.517Z,28.00
2023-02-14T05:48:02.822Z,26.50
2023-02-14T05:51:13.236Z,24.90
2023-02-14T05:54:21.247Z,23.30
2023-02-14T05:57:29.258Z,22.00
2023-02-14T06:00:40.658Z,24.30
2023-02-14T06:03:49.011Z,24.10
2023-02-14T06:06:57.610Z,22.40
2023-02-14T06:10:06.062Z,24.40
2023-02-14T06:13:14.813Z,24.80
2023-02-14T06:16:23.338Z,25.70
2023-02-14T06:19:31.148Z,26.00
2023-02-14T06:22:39.446Z,25.30
2023-02-14T06:25:47.495Z,26.30
2023-02-14T06:29:00.372Z,25.40
2023-02-14T06:32:08.671Z,24.60
2023-02-14T06:35:17.327Z,25.30
2023-02-14T06:38:25.445Z,25.60
2023-02-14T06:41:33.826Z,24.70
2023-02-14T06:44:41.758Z,23.00
2023-02-14T06:47:50.293Z,26.50
2023-02-14T06:50:58.612Z,19.30
2023-02-14T06:54:07.831Z,21.00
2023-02-14T06:57:15.822Z,24.20
2023-02-14T07:00:25.784Z,21.70
2023-02-14T07:03:33.932Z,24.80
2023-02-14T07:06:42.924Z,23.30
2023-02-14T07:09:51.735Z,23.10
2023-02-14T07:12:59.851Z,25.10
2023-02-14T07:16:08.242Z,20.70
2023-02-14T07:19:16.795Z,21.80
2023-02-14T07:22:24.812Z,22.90
2023-02-14T07:25:33.221Z,20.80
2023-02-14T07:28:44.910Z,22.10
2023-02-14T07:31:54.791Z,22.80
2023-02-14T07:38:09.605Z,18.20
2023-02-14T07:41:17.621Z,21.50
2023-02-14T07:44:25.839Z,19.90
2023-02-14T07:47:34.070Z,21.30
2023-02-14T07:50:42.273Z,22.20
2023-02-14T07:53:50.139Z,18.70
2023-02-14T07:56:58.297Z,20.40
2023-02-14T08:00:08.042Z,19.50
2023-02-14T08:03:16.573Z,20.20
2023-02-14T08:06:26.204Z,20.70
2023-02-14T08:09:35.103Z,17.10
2023-02-14T08:13:01.744Z,22.30
2023-02-14T08:16:11.921Z,17.40
2023-02-14T08:19:20.277Z,17.70
2023-02-14T08:22:28.478Z,19.50
2023-02-14T08:25:36.843Z,19.70
2023-02-14T08:28:45.194Z,20.40
2023-02-14T08:31:53.802Z,19.00
2023-02-14T08:35:02.512Z,19.40
2023-02-14T08:38:11.906Z,20.20
2023-02-14T08:41:20.951Z,21.20
2023-02-14T08:44:29.550Z,19.10
2023-02-14T08:47:40.558Z,20.90
2023-02-14T08:50:48.634Z,20.50
2023-02-14T08:53:57.048Z,20.20
2023-02-14T08:57:05.775Z,21.10
2023-02-14T09:00:16.064Z,21.20
2023-02-14T09:03:24.253Z,23.10
2023-02-14T09:06:33.300Z,21.50
2023-02-14T09:09:41.368Z,21.80
2023-02-14T09:12:49.566Z,22.20
2023-02-14T09:15:58.498Z,22.80
2023-02-14T09:19:08.895Z,17.20
2023-02-14T09:22:17.107Z,19.30
2023-02-14T09:25:25.683Z,18.90
2023-02-14T09:28:34.094Z,19.80
2023-02-14T09:31:42.840Z,18.60
2023-02-14T09:34:50.880Z,20.90
2023-02-14T09:38:17.945Z,22.00
2023-02-14T09:41:55.858Z,20.00
2023-02-14T09:45:11.015Z,20.30
2023-02-14T09:48:36.381Z,20.30
2023-02-14T09:51:52.056Z,19.90
2023-02-14T09:55:03.008Z,19.90
2023-02-14T09:58:23.350Z,21.40
2023-02-14T10:01:38.282Z,18.60
2023-02-14T10:05:28.360Z,18.60
2023-02-14T10:09:02.749Z,15.00
2023-02-14T10:12:23.339Z,16.20
2023-02-14T10:15:39.663Z,16.50
2023-02-14T10:19:02.777Z,17.20
2023-02-14T10:22:17.267Z,18.10
2023-02-14T10:25:35.738Z,18.80
2023-02-14T10:28:50.495Z,18.10
2023-02-14T10:32:10.270Z,21.20
2023-02-14T10:35:29.961Z,16.00
2023-02-14T10:38:51.653Z,16.60
2023-02-14T10:42:14.376Z,15.80
2023-02-14T10:45:36.235Z,15.70
2023-02-14T10:48:59.069Z,15.00
2023-02-14T10:52:24.372Z,16.00
2023-02-14T10:55:45.438Z,15.10
2023-02-14T10:58:57.277Z,16.30
2023-02-14T11:02:08.108Z,14.60
2023-02-14T11:05:29.797Z,13.80
2023-02-14T11:08:41.458Z,16.60
2023-02-14T11:11:54.603Z,16.90
2023-02-14T11:15:23.614Z,15.50
2023-02-14T11:18:36.181Z,16.50
2023-02-14T11:21:47.031Z,16.00
2023-02-14T11:25:09.768Z,16.00
2023-02-14T11:28:22.698Z,14.60
2023-02-14T11:31:38.141Z,15.00
2023-02-14T11:34:53.898Z,14.30
2023-02-14T11:38:05.230Z,12.60
2023-02-14T11:41:16.400Z,12.80
2023-02-14T11:44:28.370Z,14.20
2023-02-14T11:47:41.565Z,15.10
2023-02-14T11:51:03.048Z,14.70
2023-02-14T11:54:31.908Z,14.60
2023-02-14T11:57:42.820Z,13.60
2023-02-14T12:00:57.935Z,15.40
2023-02-14T12:04:14.528Z,10.50
2023-02-14T12:07:30.623Z,13.00
2023-02-14T12:10:40.454Z,10.60
2023-02-14T12:13:58.182Z,12.00
2023-02-14T12:17:21.941Z,11.50
2023-02-14T12:20:43.302Z,12.50
2023-02-14T12:24:03.248Z,13.40
2023-02-14T12:30:36.907Z,14.80
2023-02-14T12:33:46.877Z,13.80
2023-02-14T12:37:14.568Z,12.30
2023-02-14T12:40:36.635Z,13.00
2023-02-14T12:43:52.680Z,21.30
2023-02-14T12:47:38.486Z,12.00
2023-02-14T12:50:56.004Z,14.10
2023-02-14T12:54:24.938Z,13.00
2023-02-14T12:57:46.135Z,11.00
2023-02-14T13:01:16.328Z,10.90
2023-02-14T13:05:01.944Z,11.30
2023-02-14T13:08:30.084Z,10.60
2023-02-14T13:11:53.146Z,12.20
2023-02-14T13:15:20.576Z,11.90
2023-02-14T13:18:47.935Z,11.40
2023-02-14T13:21:59.765Z,11.30
2023-02-14T13:25:20.742Z,13.00
2023-02-14T13:28:31.271Z,13.30
2023-02-14T13:31:41.827Z,13.10
2023-02-14T13:34:52.181Z,13.80
2023-02-14T13:38:05.671Z,12.70
2023-02-14T13:41:15.764Z,12.40
2023-02-14T13:44:47.816Z,12.40
2023-02-14T13:48:11.635Z,11.00
2023-02-14T13:51:19.807Z,11.80
2023-02-14T13:54:37.323Z,11.80
2023-02-14T13:57:46.349Z,11.90
2023-02-14T14:00:56.143Z,11.50
2023-02-14T14:04:08.557Z,11.60
2023-02-14T14:07:30.941Z,10.80
2023-02-14T14:10:51.765Z,10.20
2023-02-14T14:14:05.943Z,10.70
2023-02-14T14:17:30.212Z,10.50
2023-02-14T14:20:50.504Z,11.40
2023-02-14T14:24:27.594Z,10.70
2023-02-14T14:27:42.476Z,11.00
2023-02-14T14:30:51.170Z,11.10
2023-02-14T14:34:04.517Z,12.20
2023-02-14T14:37:22.559Z,12.50
2023-02-14T14:40:37.268Z,23.40
2023-02-14T14:43:46.571Z,12.60
2023-02-14T14:46:54.774Z,11.70
2023-02-14T14:50:16.454Z,10.90
2023-02-14T14:53:30.539Z,11.90
2023-02-14T14:57:00.188Z,13.80
2023-02-14T15:00:28.725Z,11.00
2023-02-14T15:03:46.790Z,12.80
2023-02-14T15:06:57.452Z,12.60
2023-02-14T15:10:21.873Z,12.70
2023-02-14T15:13:54.855Z,13.00
2023-02-14T15:17:08.598Z,14.70
2023-02-14T15:20:23.496Z,14.40
2023-02-14T15:23:32.205Z,15.20
2023-02-14T15:26:40.834Z,12.90
2023-02-14T15:30:00.951Z,13.00
